Time;durP1;ratioP1;P1;durP2;ratioP2;P2;SDS_P1;SDS_P2;PMS_P1;PMS_P2;Temp;Humidity;BMP_temperature;BMP_pressure;BME280_temperature;BME280_humidity;BME280_pressure;Samples;Min_cycle;Max_cycle;Signal;HPM_P1;HPM_P2
2023/05/01 00:01:13;;;;;;;17.02;9.63;;;14.00;99.90;;;;;;5025329;28;20065;-71
2023/05/01 00:03:41;;;;;;;11.07;8.65;;;14.00;99.90;;;;;;4994448;28;20061;-71
2023/05/01 00:06:09;;;;;;;13.02;9.05;;;14.10;99.90;;;;;;5038497;28;20057;-72
2023/05/01 00:08:39;;;;;;;13.63;8.82;;;14.00;99.90;;;;;;5002067;28;20045;-72
2023/05/01 00:11:10;;;;;;;10.45;8.32;;;13.90;99.90;;;;;;5018812;28;20054;-70
2023/05/01 00:13:39;;;;;;;10.23;8.45;;;13.90;99.90;;;;;;5043685;28;20054;-71
2023/05/01 00:16:11;;;;;;;12.38;8.50;;;14.00;99.90;;;;;;4997524;28;20129;-72
2023/05/01 00:18:40;;;;;;;13.15;9.20;;;14.00;99.90;;;;;;5006271;28;20053;-70
2023/05/01 00:21:10;;;;;;;11.57;8.52;;;14.10;99.90;;;;;;5015920;28;20060;-70
2023/05/01 00:23:44;;;;;;;10.68;8.65;;;14.10;99.90;;;;;;5010797;28;20061;-71
2023/05/01 00:26:15;;;;;;;12.00;8.73;;;14.00;99.90;;;;;;5006172;28;20049;-71
2023/05/01 00:28:49;;;;;;;14.40;8.52;;;14.00;99.90;;;;;;4968920;28;20142;-71
2023/05/01 00:31:23;;;;;;;11.18;8.55;;;13.90;99.90;;;;;;5025877;28;20144;-77
2023/05/01 00:33:51;;;;;;;10.40;8.82;;;13.80;99.90;;;;;;5011118;28;20049;-70
2023/05/01 00:36:19;;;;;;;9.85;8.85;;;13.80;99.90;;;;;;5041607;28;20045;-70
2023/05/01 00:38:49;;;;;;;10.25;8.68;;;13.90;99.90;;;;;;5077550;22;20049;-70
2023/05/01 00:41:17;;;;;;;;;;;13.70;99.90;;;;;;5114921;22;20045;-70
2023/05/01 00:43:46;;;;;;;11.00;8.43;;;13.70;99.90;;;;;;5036724;28;19921;-71
2023/05/01 00:46:45;;;;;;;12.07;9.20;;;13.70;99.90;;;;;;5034153;28;20037;-70
2023/05/01 00:49:49;;;;;;;11.68;8.57;;;13.80;99.90;;;;;;5054808;28;20049;-71
2023/05/01 00:52:52;;;;;;;11.73;9.43;;;13.80;99.90;;;;;;5051976;28;20430;-70
2023/05/01 00:55:21;;;;;;;13.65;9.25;;;13.30;99.90;;;;;;5023960;28;20056;-71
2023/05/01 00:57:49;;;;;;;13.27;9.70;;;12.80;99.90;;;;;;5053440;28;20022;-71
2023/05/01 01:00:18;;;;;;;18.13;9.88;;;12.70;99.90;;;;;;5054333;28;20054;-75
2023/05/01 01:02:48;;;;;;;15.13;10.25;;;12.80;99.90;;;;;;5057055;28;20051;-74
2023/05/01 01:05:23;;;;;;;12.43;10.18;;;13.20;99.90;;;;;;5040389;28;20121;-72
2023/05/01 01:08:15;;;;;;;11.65;9.55;;;13.60;99.90;;;;;;5031535;28;20049;-71
2023/05/01 01:10:55;;;;;;;12.15;9.05;;;13.30;99.90;;;;;;5035075;28;20053;-72
2023/05/01 01:13:35;;;;;;;12.57;9.07;;;13.40;99.90;;;;;;5038319;28;20121;-69
2023/05/01 01:16:05;;;;;;;12.88;9.60;;;13.40;99.90;;;;;;5054129;28;20045;-69
2023/05/01 01:19:01;;;;;;;12.10;8.63;;;13.40;99.90;;;;;;5052431;28;20049;-70
2023/05/01 01:21:46;;;;;;;13.05;9.30;;;13.50;99.90;;;;;;5027376;28;20034;-71
2023/05/01 01:24:46;;;;;;;14.35;10.35;;;13.40;99.90;;;;;;5012721;28;20053;-71
2023/05/01 01:27:42;;;;;;;11.90;9.25;;;13.30;99.90;;;;;;5045836;28;20030;-71
2023/05/01 01:30:41;;;;;;;14.55;9.60;;;13.30;99.90;;;;;;5035409;28;20396;-71
2023/05/01 01:33:47;;;;;;;11.32;9.77;;;13.40;99.90;;;;;;5035725;28;20089;-70
2023/05/01 01:36:42;;;;;;;12.18;10.10;;;13.30;99.90;;;;;;5030775;28;20053;-70
2023/05/01 01:40:03;;;;;;;15.10;9.88;;;13.40;99.90;;;;;;5029600;28;20065;-74
2023/05/01 01:42:41;;;;;;;12.13;9.95;;;13.40;99.90;;;;;;5038811;28;20026;-76
2023/05/01 01:45:18;;;;;;;12.32;10.20;;;13.40;99.90;;;;;;5039222;28;20093;-70
2023/05/01 01:47:47;;;;;;;16.63;10.13;;;13.40;99.90;;;;;;5037311;28;20053;-71
2023/05/01 01:50:16;;;;;;;14.85;10.32;;;13.40;99.90;;;;;;5038767;28;20053;-71
2023/05/01 01:52:48;;;;;;;12.70;9.52;;;13.20;99.90;;;;;;5020891;28;20109;-70
2023/05/01 01:55:26;;;;;;;13.32;9.85;;;13.20;99.90;;;;;;5006469;28;20133;-71
2023/05/01 01:57:57;;;;;;;14.02;9.73;;;13.30;99.90;;;;;;5020658;28;20062;-71
2023/05/01 02:00:27;;;;;;;14.55;9.88;;;13.20;99.90;;;;;;5032458;28;20056;-73
2023/05/01 02:02:59;;;;;;;14.70;10.82;;;13.30;99.90;;;;;;5043703;28;20037;-77
2023/05/01 02:05:31;;;;;;;12.95;10.00;;;13.00;99.90;;;;;;5032713;28;20053;-70
2023/05/01 02:07:59;;;;;;;13.80;10.07;;;13.10;99.90;;;;;;5021401;28;20046;-77
2023/05/01 02:10:28;;;;;;;14.18;10.05;;;13.00;99.90;;;;;;5021373;28;20042;-74
2023/05/01 02:12:58;;;;;;;14.57;10.30;;;13.00;99.90;;;;;;5037740;28;20085;-71
2023/05/01 02:15:27;;;;;;;13.98;9.68;;;13.00;99.90;;;;;;5036220;28;20034;-71
2023/05/01 02:18:03;;;;;;;12.90;9.75;;;13.10;99.90;;;;;;5038004;28;20069;-71
2023/05/01 02:20:32;;;;;;;11.77;9.32;;;12.90;99.90;;;;;;5033986;28;20030;-71
2023/05/01 02:23:01;;;;;;;11.90;9.10;;;13.00;99.90;;;;;;4992508;28;20116;-70
2023/05/01 02:25:36;;;;;;;13.45;8.93;;;13.10;99.90;;;;;;4967757;28;20145;-70
2023/05/01 02:28:11;;;;;;;13.02;9.27;;;13.30;99.90;;;;;;4985332;28;20045;-72
2023/05/01 02:30:39;;;;;;;11.60;8.85;;;13.20;99.90;;;;;;5127787;22;20122;-69
2023/05/01 02:33:35;;;;;;;13.50;10.10;;;13.10;99.90;;;;;;4999615;28;20046;-69
2023/05/01 02:36:16;;;;;;;11.07;9.55;;;13.10;99.90;;;;;;4985816;28;20083;-71
2023/05/01 02:38:55;;;;;;;13.33;9.17;;;13.00;99.90;;;;;;4974713;28;20042;-71
2023/05/01 02:42:02;;;;;;;13.75;9.43;;;13.00;99.90;;;;;;5011979;28;20038;-75
2023/05/01 02:44:40;;;;;;;12.20;8.95;;;12.90;99.90;;;;;;5036334;28;20050;-74
2023/05/01 02:47:11;;;;;;;12.13;9.00;;;12.90;99.90;;;;;;5024755;28;20057;-84
2023/05/01 02:49:39;;;;;;;11.60;9.05;;;13.00;99.90;;;;;;5009079;28;20046;-69
2023/05/01 02:52:07;;;;;;;11.73;9.68;;;13.00;99.90;;;;;;5011543;28;20049;-80
2023/05/01 02:54:35;;;;;;;12.10;9.00;;;12.90;99.90;;;;;;5025123;28;20038;-82
2023/05/01 02:57:04;;;;;;;12.13;9.68;;;12.90;99.90;;;;;;5035316;28;20075;-77
2023/05/01 02:59:32;;;;;;;12.27;9.73;;;12.90;99.90;;;;;;5035612;28;20076;-80
2023/05/01 03:02:00;;;;;;;10.88;9.13;;;12.10;99.90;;;;;;5035259;28;20053;-82
2023/05/01 03:04:36;;;;;;;12.45;9.50;;;11.90;99.90;;;;;;5035451;28;20063;-78
2023/05/01 03:07:03;;;;;;;14.98;9.98;;;11.80;99.90;;;;;;4998734;28;20060;-75
2023/05/01 03:09:34;;;;;;;11.95;9.90;;;12.00;99.90;;;;;;5035072;28;20074;-71
2023/05/01 03:12:24;;;;;;;12.48;9.60;;;12.20;99.90;;;;;;5047316;28;20093;-74
2023/05/01 03:14:55;;;;;;;14.00;9.48;;;12.20;99.90;;;;;;5015010;23;20053;-71
2023/05/01 03:17:24;;;;;;;12.23;9.82;;;12.40;99.90;;;;;;4996075;28;20037;-78
2023/05/01 03:19:52;;;;;;;22.45;11.00;;;12.60;99.90;;;;;;5015291;28;20050;-77
2023/05/01 03:22:20;;;;;;;12.20;9.98;;;12.60;99.90;;;;;;5016792;28;20074;-76
2023/05/01 03:24:47;;;;;;;13.70;9.60;;;12.70;99.90;;;;;;5014212;28;20133;-78
2023/05/01 03:27:34;;;;;;;12.02;9.95;;;12.70;99.90;;;;;;5012792;28;20110;-76
2023/05/01 03:30:04;;;;;;;14.57;9.88;;;12.70;99.90;;;;;;4978806;28;20107;-79
2023/05/01 03:32:32;;;;;;;12.05;9.27;;;12.70;99.90;;;;;;4998150;28;20061;-77
2023/05/01 03:35:05;;;;;;;12.88;9.95;;;12.70;99.90;;;;;;4993997;28;20126;-73
2023/05/01 03:37:33;;;;;;;11.98;10.00;;;12.60;99.90;;;;;;4978349;28;20031;-75
2023/05/01 03:40:00;;;;;;;11.82;9.57;;;12.50;99.90;;;;;;5001483;28;20082;-76
2023/05/01 03:42:28;;;;;;;13.88;9.88;;;12.30;99.90;;;;;;4999997;28;20054;-76
2023/05/01 03:44:56;;;;;;;11.52;9.73;;;12.30;99.90;;;;;;5000133;28;20051;-78
2023/05/01 03:47:27;;;;;;;13.50;10.93;;;12.40;99.90;;;;;;4995918;28;20062;-75
2023/05/01 03:49:57;;;;;;;13.50;10.00;;;12.30;99.90;;;;;;4992529;28;20066;-80
2023/05/01 03:52:25;;;;;;;11.43;9.55;;;12.30;99.90;;;;;;4996631;28;20063;-77
2023/05/01 03:54:52;;;;;;;12.50;9.88;;;12.30;99.90;;;;;;4996971;28;20058;-82
2023/05/01 03:57:20;;;;;;;12.60;10.55;;;12.40;99.90;;;;;;4997203;28;20102;-76
2023/05/01 03:59:47;;;;;;;13.27;10.13;;;12.40;99.90;;;;;;4993921;28;20053;-78
2023/05/01 04:02:14;;;;;;;12.20;9.63;;;12.40;99.90;;;;;;4998442;28;20118;-72
2023/05/01 04:04:42;;;;;;;15.90;9.68;;;12.40;99.90;;;;;;5002005;28;20047;-73
2023/05/01 04:07:09;;;;;;;14.50;9.45;;;12.40;99.90;;;;;;5001535;28;20055;-72
2023/05/01 04:09:36;;;;;;;12.20;9.65;;;12.50;99.90;;;;;;4999653;28;20529;-72
2023/05/01 04:12:12;;;;;;;12.70;10.20;;;12.60;99.90;;;;;;4995477;28;20050;-71
2023/05/01 04:14:39;;;;;;;11.27;9.48;;;12.50;99.90;;;;;;5015465;28;20058;-71
2023/05/01 04:17:14;;;;;;;13.18;9.63;;;12.60;99.90;;;;;;5015811;28;20109;-70
2023/05/01 04:19:42;;;;;;;13.90;9.45;;;12.70;99.90;;;;;;5005472;28;20054;-72
2023/05/01 04:22:09;;;;;;;12.90;9.82;;;12.60;99.90;;;;;;5039647;28;20058;-69
2023/05/01 04:24:37;;;;;;;12.30;9.30;;;12.70;99.90;;;;;;5007349;28;20101;-70
2023/05/01 04:27:04;;;;;;;12.85;9.88;;;12.60;99.90;;;;;;5007916;28;20034;-71
2023/05/01 04:29:32;;;;;;;13.98;9.85;;;12.70;99.90;;;;;;5049786;22;20041;-74
2023/05/01 04:31:59;;;;;;;13.38;10.20;;;12.70;99.90;;;;;;5040500;28;20117;-70
2023/05/01 04:34:28;;;;;;;15.32;9.27;;;12.70;99.90;;;;;;5040436;28;20041;-70
2023/05/01 04:37:07;;;;;;;12.32;8.85;;;12.60;99.90;;;;;;5032534;28;20061;-71
2023/05/01 04:39:35;;;;;;;15.55;9.05;;;12.60;99.90;;;;;;5040342;28;20034;-69
2023/05/01 04:42:03;;;;;;;11.43;9.13;;;12.60;99.90;;;;;;5040062;28;20048;-71
2023/05/01 04:44:33;;;;;;;14.23;9.60;;;12.70;99.90;;;;;;5003729;28;20047;-72
2023/05/01 04:47:03;;;;;;;12.25;8.75;;;12.80;99.90;;;;;;5020503;28;20062;-70
2023/05/01 04:49:31;;;;;;;11.20;8.80;;;12.80;99.90;;;;;;5058966;28;20038;-70
2023/05/01 04:51:58;;;;;;;12.00;8.85;;;12.80;99.90;;;;;;5040460;28;20049;-70
2023/05/01 04:54:26;;;;;;;10.57;8.60;;;12.60;99.90;;;;;;5040403;28;20042;-72
2023/05/01 04:56:53;;;;;;;11.77;8.60;;;12.50;99.90;;;;;;5039895;28;20044;-71
2023/05/01 04:59:25;;;;;;;10.52;7.70;;;12.60;99.90;;;;;;5026594;28;20069;-70
2023/05/01 05:01:53;;;;;;;10.52;7.50;;;12.70;99.90;;;;;;4999191;28;20106;-71
2023/05/01 05:04:21;;;;;;;10.45;8.00;;;12.70;99.90;;;;;;5039813;28;20033;-70
2023/05/01 05:06:48;;;;;;;9.70;7.85;;;12.80;99.90;;;;;;5039965;28;20048;-72
2023/05/01 05:09:18;;;;;;;9.05;7.43;;;12.80;99.90;;;;;;4992442;28;20054;-71
2023/05/01 05:11:51;;;;;;;8.60;7.05;;;12.90;99.90;;;;;;5006711;28;20050;-71
2023/05/01 05:14:58;;;;;;;10.85;7.10;;;13.00;99.90;;;;;;5018302;28;20060;-70
2023/05/01 05:17:42;;;;;;;12.20;7.65;;;13.10;99.90;;;;;;4997194;28;20108;-71
2023/05/01 05:20:14;;;;;;;10.88;7.00;;;13.20;99.90;;;;;;5000941;28;20061;-71
2023/05/01 05:22:42;;;;;;;10.38;7.03;;;13.30;99.90;;;;;;5007831;28;20052;-70
2023/05/01 05:25:10;;;;;;;8.98;6.85;;;13.20;99.90;;;;;;5032470;28;20058;-75
2023/05/01 05:27:37;;;;;;;8.98;6.85;;;13.20;99.90;;;;;;5018503;28;20057;-70
2023/05/01 05:30:05;;;;;;;12.48;7.43;;;13.40;99.90;;;;;;5019114;28;20054;-70
2023/05/01 05:32:32;;;;;;;10.70;7.00;;;13.30;99.90;;;;;;5021286;28;20042;-73
2023/05/01 05:38:25;;;;;;;8.30;6.40;;;13.60;99.90;;;;;;5015416;28;20034;-71
2023/05/01 05:40:55;;;;;;;8.73;6.50;;;13.70;99.90;;;;;;5006171;28;20048;-72
2023/05/01 05:43:23;;;;;;;8.45;6.43;;;13.80;99.90;;;;;;5038823;28;20070;-73
2023/05/01 05:46:00;;;;;;;10.57;6.90;;;13.90;99.90;;;;;;5026348;28;20037;-73
2023/05/01 05:48:27;;;;;;;10.27;6.60;;;14.00;99.90;;;;;;5039262;28;20036;-80
2023/05/01 05:51:09;;;;;;;9.13;6.82;;;14.10;99.90;;;;;;5017678;28;20082;-73
2023/05/01 05:53:50;;;;;;;7.85;6.07;;;13.90;99.90;;;;;;4998754;28;20057;-71
2023/05/01 05:56:17;;;;;;;10.98;6.80;;;14.00;99.90;;;;;;5033009;28;20044;-75
2023/05/01 05:58:45;;;;;;;9.65;6.57;;;14.10;99.90;;;;;;5032007;28;20062;-72
2023/05/01 06:01:13;;;;;;;8.40;6.85;;;14.20;99.90;;;;;;5021416;28;20038;-72
2023/05/01 06:03:43;;;;;;;8.98;6.57;;;14.20;99.90;;;;;;5034226;28;20077;-71
2023/05/01 06:06:11;;;;;;;7.47;5.70;;;14.20;99.90;;;;;;4988797;28;20044;-74
2023/05/01 06:08:44;;;;;;;8.20;5.93;;;14.20;99.90;;;;;;5017494;28;20514;-71
2023/05/01 06:15:01;;;;;;;9.38;5.78;;;14.50;99.90;;;;;;5020138;28;20248;-72
2023/05/01 06:18:10;;;;;;;9.73;6.25;;;14.60;99.90;;;;;;5009336;28;20116;-72
2023/05/01 06:20:58;;;;;;;8.55;5.93;;;14.50;99.90;;;;;;4980980;28;20057;-71
2023/05/01 06:23:43;;;;;;;8.68;6.22;;;14.70;99.90;;;;;;4981911;28;20050;-72
2023/05/01 06:26:14;;;;;;;9.60;6.65;;;14.80;99.90;;;;;;5030759;28;20054;-71
2023/05/01 06:29:13;;;;;;;10.70;5.78;;;14.90;99.90;;;;;;4952299;28;20079;-71
2023/05/01 06:31:51;;;;;;;9.00;6.38;;;14.90;99.90;;;;;;4974736;28;20385;-76
2023/05/01 06:34:20;;;;;;;9.18;6.47;;;15.00;99.90;;;;;;4979212;28;20039;-83
2023/05/01 06:36:48;;;;;;;8.02;6.47;;;15.00;99.90;;;;;;5000816;28;20054;-76
2023/05/01 06:39:15;;;;;;;8.02;6.05;;;15.00;99.90;;;;;;5008118;28;20026;-73
2023/05/01 06:41:48;;;;;;;9.15;6.78;;;15.10;99.90;;;;;;4998317;28;20046;-71
2023/05/01 06:44:21;;;;;;;9.38;6.70;;;15.30;99.90;;;;;;4972811;28;20062;-71
2023/05/01 06:46:49;;;;;;;10.18;6.40;;;15.40;99.90;;;;;;4997415;28;20647;-71
2023/05/01 06:49:19;;;;;;;9.65;6.30;;;15.40;99.90;;;;;;4998292;28;20167;-71
2023/05/01 06:51:50;;;;;;;7.97;5.68;;;15.40;99.90;;;;;;5000678;28;20050;-73
2023/05/01 06:54:18;;;;;;;8.32;6.18;;;15.60;99.90;;;;;;5014108;28;20056;-72
2023/05/01 06:56:48;;;;;;;10.98;6.22;;;15.50;99.90;;;;;;4987494;28;20054;-72
2023/05/01 06:59:16;;;;;;;7.82;5.70;;;15.50;99.90;;;;;;5018360;28;20058;-72
2023/05/01 07:01:44;;;;;;;8.18;5.80;;;15.60;99.90;;;;;;5028521;28;20049;-72
2023/05/01 07:04:12;;;;;;;10.05;5.80;;;15.70;99.90;;;;;;4993958;28;20057;-73
2023/05/01 07:06:49;;;;;;;7.05;5.85;;;15.60;99.90;;;;;;5019372;28;20113;-71
2023/05/01 07:09:16;;;;;;;7.78;5.75;;;15.70;99.90;;;;;;5008760;28;20077;-71
2023/05/01 07:11:49;;;;;;;8.02;5.60;;;15.70;99.90;;;;;;5013492;28;20090;-78
2023/05/01 07:14:17;;;;;;;9.75;5.55;;;15.80;99.90;;;;;;4992765;28;20050;-71
2023/05/01 07:16:44;;;;;;;7.03;5.20;;;15.80;99.90;;;;;;5002945;28;20411;-71
2023/05/01 07:19:12;;;;;;;66.93;41.83;;;16.00;99.90;;;;;;5014976;28;20104;-72
2023/05/01 07:21:42;;;;;;;44.47;29.98;;;16.20;99.90;;;;;;4980578;28;20057;-76
2023/05/01 07:24:09;;;;;;;14.13;11.43;;;16.30;99.90;;;;;;5031403;28;20132;-72
2023/05/01 07:26:37;;;;;;;9.00;6.57;;;16.40;99.90;;;;;;4996410;28;20047;-77
2023/05/01 07:29:04;;;;;;;8.43;5.70;;;16.40;99.90;;;;;;4987434;28;20050;-74
2023/05/01 07:31:35;;;;;;;8.93;4.82;;;16.40;99.90;;;;;;5022701;28;20085;-71
2023/05/01 07:34:06;;;;;;;9.35;5.60;;;16.50;99.90;;;;;;4995004;28;20101;-75
2023/05/01 07:36:44;;;;;;;7.72;5.32;;;16.50;99.90;;;;;;5017688;28;20157;-72
2023/05/01 07:39:41;;;;;;;8.35;5.60;;;16.40;99.90;;;;;;4974050;28;20034;-73
2023/05/01 07:42:22;;;;;;;6.97;4.93;;;16.60;99.90;;;;;;5006730;28;20096;-75
2023/05/01 07:44:53;;;;;;;7.13;5.10;;;16.60;99.90;;;;;;5031934;28;20076;-71
2023/05/01 07:47:32;;;;;;;7.35;5.10;;;16.70;99.90;;;;;;4997003;28;20069;-73
2023/05/01 07:50:12;;;;;;;8.73;5.70;;;16.80;99.90;;;;;;5004996;28;20050;-73
2023/05/01 07:52:40;;;;;;;7.75;5.35;;;16.80;99.90;;;;;;5019067;28;20062;-72
2023/05/01 07:55:37;;;;;;;8.93;4.57;;;16.90;99.90;;;;;;5005655;28;20046;-73
2023/05/01 07:58:14;;;;;;;7.28;5.07;;;17.00;99.90;;;;;;5001210;28;20601;-74
2023/05/01 08:01:48;;;;;;;7.82;5.18;;;17.00;99.90;;;;;;5018122;28;20105;-73
2023/05/01 08:04:17;;;;;;;7.57;5.15;;;17.00;99.90;;;;;;5024825;28;20050;-81
2023/05/01 08:06:48;;;;;;;8.52;5.28;;;17.10;99.90;;;;;;5028896;28;20054;-70
2023/05/01 08:09:26;;;;;;;8.30;4.82;;;17.20;99.90;;;;;;4999179;28;20051;-79
2023/05/01 08:11:57;;;;;;;7.07;4.82;;;17.30;99.90;;;;;;4996305;28;20080;-72
2023/05/01 08:17:51;;;;;;;;;;;17.40;99.90;;;;;;4998978;28;20050;-72
2023/05/01 08:20:55;;;;;;;6.65;4.50;;;17.40;99.90;;;;;;5007014;28;19921;-70
2023/05/01 08:23:29;;;;;;;6.95;5.20;;;17.60;99.90;;;;;;5015411;28;20050;-72
2023/05/01 08:25:58;;;;;;;7.88;4.55;;;17.70;99.90;;;;;;4993879;28;20046;-71
2023/05/01 08:28:29;;;;;;;6.80;4.90;;;17.80;99.90;;;;;;4991839;28;20117;-74
2023/05/01 08:31:02;;;;;;;8.27;4.80;;;17.80;99.90;;;;;;4987805;28;20031;-74
2023/05/01 08:33:30;;;;;;;7.85;4.45;;;18.00;99.90;;;;;;5002973;28;20053;-76
2023/05/01 08:35:58;;;;;;;6.00;4.70;;;17.90;98.80;;;;;;4969888;28;20118;-73
2023/05/01 08:38:26;;;;;;;5.95;4.30;;;17.80;97.80;;;;;;4996016;28;20085;-75
2023/05/01 08:41:00;;;;;;;9.70;6.32;;;17.90;97.90;;;;;;5016273;28;20396;-73
2023/05/01 08:43:33;;;;;;;48.33;32.25;;;18.00;99.90;;;;;;4981182;28;20062;-78
2023/05/01 08:46:00;;;;;;;14.95;11.57;;;18.30;99.80;;;;;;5025134;28;20050;-72
2023/05/01 08:48:31;;;;;;;8.18;6.22;;;18.40;99.00;;;;;;5030856;28;20046;-76
2023/05/01 08:51:21;;;;;;;5.18;3.90;;;18.50;98.00;;;;;;5013650;28;20054;-72
2023/05/01 08:53:52;;;;;;;5.53;3.90;;;18.60;96.50;;;;;;4979348;28;20050;-71
2023/05/01 08:56:36;;;;;;;5.35;4.03;;;18.60;95.20;;;;;;4997820;28;20110;-74
2023/05/01 08:59:11;;;;;;;6.18;4.50;;;18.70;94.10;;;;;;5010910;28;20077;-72
2023/05/01 09:01:44;;;;;;;5.20;3.70;;;18.90;93.20;;;;;;4992149;28;20072;-75
2023/05/01 09:04:36;;;;;;;5.18;3.50;;;19.00;92.50;;;;;;5014545;28;20050;-77
2023/05/01 09:07:05;;;;;;;6.60;3.90;;;19.20;92.20;;;;;;4977413;28;20073;-72
2023/05/01 09:09:50;;;;;;;4.60;3.10;;;19.40;91.50;;;;;;4991023;28;20046;-73
2023/05/01 09:12:26;;;;;;;4.20;3.00;;;19.50;87.50;;;;;;5009729;28;20037;-72
2023/05/01 09:15:12;;;;;;;4.55;3.28;;;19.20;84.40;;;;;;5002708;28;20105;-71
2023/05/01 09:17:59;;;;;;;6.50;3.42;;;19.20;87.20;;;;;;4997837;28;20056;-80
2023/05/01 09:20:36;;;;;;;5.35;3.67;;;19.50;90.60;;;;;;5029121;28;20084;-73
2023/05/01 09:23:06;;;;;;;5.55;3.63;;;19.80;90.00;;;;;;5027127;28;20048;-76
2023/05/01 09:25:57;;;;;;;5.45;3.50;;;20.10;90.00;;;;;;4999176;28;20050;-76
2023/05/01 09:29:02;;;;;;;32.30;23.15;;;20.30;88.20;;;;;;4976071;28;20140;-75
2023/05/01 09:31:49;;;;;;;10.90;7.18;;;20.30;90.10;;;;;;4990145;28;20151;-77
2023/05/01 09:34:24;;;;;;;8.65;5.13;;;20.50;89.70;;;;;;5005115;28;20047;-76
2023/05/01 09:37:44;;;;;;;6.80;4.53;;;20.60;90.00;;;;;;4972696;28;20054;-76
2023/05/01 09:40:14;;;;;;;5.10;3.50;;;20.80;88.60;;;;;;5002672;28;20057;-75
2023/05/01 09:42:52;;;;;;;5.65;3.67;;;20.80;83.00;;;;;;4996910;28;20068;-79
2023/05/01 09:45:25;;;;;;;7.10;4.00;;;20.70;87.10;;;;;;5003191;28;20047;-74
2023/05/01 09:48:12;;;;;;;5.60;3.67;;;20.70;84.80;;;;;;4982385;28;20058;-76
2023/05/01 09:51:36;;;;;;;5.50;3.35;;;20.70;83.60;;;;;;4991954;28;20154;-83
2023/05/01 09:54:40;;;;;;;6.82;3.50;;;20.80;79.50;;;;;;5015396;28;20061;-73
2023/05/01 09:57:48;;;;;;;5.45;3.38;;;20.90;80.70;;;;;;5025894;28;20098;-74
2023/05/01 10:01:07;;;;;;;5.53;3.70;;;20.90;79.80;;;;;;4969096;28;20493;-81
2023/05/01 10:09:55;;;;;;;4.80;3.40;;;21.20;78.10;;;;;;5040192;28;20045;-80
2023/05/01 10:12:43;;;;;;;5.70;3.63;;;21.30;79.40;;;;;;4992370;28;20045;-80
2023/05/01 10:15:36;;;;;;;5.20;3.30;;;21.30;76.60;;;;;;5004877;28;20065;-77
2023/05/01 10:18:11;;;;;;;5.43;3.63;;;21.50;76.60;;;;;;5008825;28;20066;-74
2023/05/01 10:20:58;;;;;;;15.02;10.60;;;21.50;75.60;;;;;;5018641;28;20057;-77
2023/05/01 10:23:27;;;;;;;;;;;21.50;77.60;;;;;;5010054;28;20050;-74
2023/05/01 10:26:00;;;;;;;7.25;4.20;;;21.60;77.60;;;;;;5021056;28;19971;-73
2023/05/01 10:28:41;;;;;;;5.47;3.75;;;21.80;76.70;;;;;;5013878;28;20042;-80
2023/05/01 10:31:22;;;;;;;5.70;3.90;;;21.70;76.70;;;;;;5011095;28;20132;-78
2023/05/01 10:34:15;;;;;;;8.45;3.47;;;21.60;77.70;;;;;;5011875;28;20054;-78
2023/05/01 10:37:27;;;;;;;6.18;3.55;;;21.60;76.20;;;;;;5026882;28;20062;-78
2023/05/01 10:40:38;;;;;;;8.93;3.70;;;21.80;76.10;;;;;;4998220;28;20121;-76
2023/05/01 10:43:29;;;;;;;5.25;3.35;;;21.70;73.60;;;;;;5013579;28;20054;-74
2023/05/01 10:46:17;;;;;;;7.15;4.10;;;21.80;73.60;;;;;;5017172;28;20050;-80
2023/05/01 10:49:49;;;;;;;6.72;3.47;;;21.90;74.10;;;;;;4992338;28;20060;-78
2023/05/01 10:52:23;;;;;;;7.55;3.90;;;22.00;75.10;;;;;;4989024;28;20125;-79
2023/05/01 10:55:36;;;;;;;6.25;3.80;;;22.20;73.90;;;;;;5016301;28;20049;-79
2023/05/01 10:58:09;;;;;;;6.10;3.50;;;22.50;73.70;;;;;;5023354;28;20073;-77
2023/05/01 11:01:26;;;;;;;6.05;3.53;;;22.40;74.70;;;;;;4994409;28;20054;-83
2023/05/01 11:04:31;;;;;;;4.40;3.10;;;22.50;73.40;;;;;;5025912;28;20050;-78
2023/05/01 11:07:04;;;;;;;4.30;2.80;;;22.80;72.40;;;;;;5018665;28;20054;-73
2023/05/01 11:09:57;;;;;;;5.45;2.92;;;22.90;69.30;;;;;;5018369;28;20285;-74
2023/05/01 11:12:54;;;;;;;5.60;3.00;;;23.00;69.50;;;;;;4990531;28;20050;-80
2023/05/01 11:15:31;;;;;;;5.70;3.13;;;23.10;69.90;;;;;;4985651;28;20054;-74
2023/05/01 11:18:14;;;;;;;4.57;3.13;;;23.10;69.50;;;;;;4991594;28;20064;-79
2023/05/01 11:20:51;;;;;;;4.70;2.92;;;22.90;67.60;;;;;;5021914;28;20046;-77
2023/05/01 11:23:24;;;;;;;5.10;3.13;;;22.90;68.50;;;;;;5012485;28;20459;-77
2023/05/01 11:26:03;;;;;;;6.90;3.70;;;22.90;67.20;;;;;;5005816;28;20043;-79
2023/05/01 11:28:37;;;;;;;4.40;2.92;;;22.90;68.40;;;;;;5018873;28;20096;-75
2023/05/01 11:31:04;;;;;;;6.03;3.47;;;23.00;67.50;;;;;;4992841;28;20058;-73
2023/05/01 11:33:32;;;;;;;6.15;3.20;;;23.50;67.70;;;;;;4980194;28;20117;-76
2023/05/01 11:36:11;;;;;;;4.60;2.90;;;23.60;66.70;;;;;;5001133;28;20054;-71
2023/05/01 11:38:59;;;;;;;4.93;2.97;;;23.40;66.80;;;;;;4998446;28;20113;-73
2023/05/01 11:41:51;;;;;;;5.80;3.10;;;23.30;67.60;;;;;;4996150;28;20061;-73
2023/05/01 11:44:41;;;;;;;6.78;3.70;;;23.70;67.10;;;;;;5014869;28;20077;-78
2023/05/01 11:47:12;;;;;;;8.25;3.40;;;23.60;67.10;;;;;;5001712;28;20050;-79
2023/05/01 11:49:55;;;;;;;7.95;3.70;;;23.90;67.70;;;;;;5021554;28;20045;-76
2023/05/01 11:52:48;;;;;;;33.55;27.02;;;24.20;66.60;;;;;;5005166;28;20064;-76
2023/05/01 11:55:48;;;;;;;38.30;31.08;;;24.40;65.50;;;;;;4973387;28;20050;-79
2023/05/01 11:58:51;;;;;;;9.07;7.30;;;24.40;65.10;;;;;;4996208;28;20046;-78
2023/05/01 12:01:46;;;;;;;23.05;17.58;;;24.70;63.80;;;;;;5013274;28;20133;-75
2023/05/01 12:04:25;;;;;;;8.75;6.60;;;25.10;64.60;;;;;;5027163;28;20061;-75
2023/05/01 12:07:03;;;;;;;6.88;4.45;;;24.90;64.60;;;;;;5009742;28;20038;-73
2023/05/01 12:09:32;;;;;;;6.65;3.15;;;24.90;65.60;;;;;;4996613;28;20046;-73
2023/05/01 12:12:02;;;;;;;6.65;3.78;;;25.10;64.30;;;;;;5009965;28;20048;-77
2023/05/01 12:14:29;;;;;;;5.05;3.03;;;25.40;64.60;;;;;;5013951;28;20045;-78
2023/05/01 12:17:03;;;;;;;6.93;4.00;;;25.20;65.00;;;;;;5013182;28;20129;-72
2023/05/01 12:19:50;;;;;;;7.13;3.38;;;25.20;65.30;;;;;;4986398;28;20069;-73
2023/05/01 12:22:25;;;;;;;12.48;10.18;;;24.90;64.90;;;;;;4965201;29;20051;-80
2023/05/01 12:24:53;;;;;;;22.25;17.42;;;25.40;64.10;;;;;;4952253;29;20067;-73
2023/05/01 12:27:20;;;;;;;8.63;3.97;;;25.60;65.00;;;;;;4946709;29;20054;-74
2023/05/01 12:29:54;;;;;;;6.45;3.33;;;25.20;62.90;;;;;;4952695;29;20066;-79
2023/05/01 12:32:32;;;;;;;15.30;10.63;;;25.30;62.20;;;;;;4957030;29;20055;-77
2023/05/01 12:35:02;;;;;;;19.27;16.40;;;25.80;62.70;;;;;;4967673;28;20063;-73
2023/05/01 12:37:42;;;;;;;7.82;5.65;;;25.60;61.90;;;;;;4927121;29;20078;-76
2023/05/01 12:40:15;;;;;;;6.60;4.13;;;25.50;62.30;;;;;;4960245;29;20078;-77
2023/05/01 12:42:57;;;;;;;5.65;3.53;;;25.60;62.60;;;;;;4954735;29;20053;-78
2023/05/01 12:45:25;;;;;;;5.95;3.97;;;25.60;63.30;;;;;;4956040;29;20070;-76
2023/05/01 12:47:53;;;;;;;5.43;3.38;;;25.50;61.40;;;;;;4922497;29;20091;-76
2023/05/01 12:50:21;;;;;;;5.88;4.13;;;25.00;62.30;;;;;;4956129;29;20070;-81
2023/05/01 12:52:51;;;;;;;5.68;3.40;;;25.00;62.30;;;;;;4974883;28;20050;-76
2023/05/01 12:55:19;;;;;;;8.43;3.15;;;25.30;64.70;;;;;;5026782;28;20046;-73
2023/05/01 12:58:09;;;;;;;4.68;2.80;;;25.20;62.10;;;;;;4987552;28;20069;-78
2023/05/01 13:00:59;;;;;;;42.17;34.08;;;25.10;61.30;;;;;;5008400;28;20403;-76
2023/05/01 13:04:08;;;;;;;63.95;47.67;;;25.30;62.90;;;;;;4965323;28;20142;-72
2023/05/01 13:06:56;;;;;;;10.52;7.47;;;26.10;60.30;;;;;;4993240;28;20451;-78
2023/05/01 13:09:26;;;;;;;;;;;26.70;58.30;;;;;;5006818;28;20061;-74
2023/05/01 13:12:09;;;;;;;23.13;19.10;;;27.60;57.80;;;;;;5009084;28;19925;-80
2023/05/01 13:14:41;;;;;;;11.13;6.00;;;27.90;57.50;;;;;;5024563;28;20085;-74
2023/05/01 13:17:41;;;;;;;5.57;3.17;;;27.50;59.90;;;;;;5016707;28;20085;-78
2023/05/01 13:20:29;;;;;;;5.30;3.47;;;27.00;57.10;;;;;;5020771;28;20109;-75
2023/05/01 13:23:39;;;;;;;4.78;2.92;;;27.10;57.80;;;;;;5018134;28;20145;-78
2023/05/01 13:26:11;;;;;;;5.53;3.00;;;26.70;58.30;;;;;;5030293;28;20476;-73
2023/05/01 13:29:05;;;;;;;5.70;3.00;;;26.70;58.60;;;;;;5010218;28;20136;-83
2023/05/01 13:31:33;;;;;;;5.15;3.22;;;26.80;59.30;;;;;;5021948;28;20667;-73
2023/05/01 13:34:04;;;;;;;4.57;2.72;;;26.40;62.60;;;;;;4985771;28;20060;-78
2023/05/01 13:36:33;;;;;;;5.00;2.90;;;27.40;59.50;;;;;;5034047;28;20053;-75
2023/05/01 13:39:07;;;;;;;4.78;2.67;;;27.50;59.90;;;;;;5028250;28;20053;-75
2023/05/01 13:41:51;;;;;;;4.40;2.60;;;27.60;59.00;;;;;;5010115;28;20044;-79
2023/05/01 13:44:23;;;;;;;5.20;2.88;;;26.80;60.00;;;;;;5027713;28;20056;-71
2023/05/01 13:47:22;;;;;;;4.57;2.72;;;27.00;59.60;;;;;;5036295;28;20045;-72
2023/05/01 13:50:19;;;;;;;4.80;3.30;;;27.30;59.20;;;;;;5090592;23;20509;-73